createdAt,value
2019-04-01T00:01:55.484Z,99.90
2019-04-01T00:04:22.053Z,99.90
2019-04-01T00:06:48.607Z,99.90
2019-04-01T00:09:15.088Z,99.90
2019-04-01T00:11:41.484Z,99.90
2019-04-01T00:14:10.435Z,99.90
2019-04-01T00:16:37.000Z,99.90
2019-04-01T00:19:03.828Z,99.90
2019-04-01T00:21:30.200Z,99.90
2019-04-01T00:23:56.518Z,99.90
2019-04-01T00:26:22.863Z,99.90
2019-04-01T00:28:49.241Z,99.90
2019-04-01T00:31:15.638Z,99.90
2019-04-01T00:33:42.280Z,99.90
2019-04-01T00:36:08.800Z,99.90
2019-04-01T00:38:35.093Z,99.90
2019-04-01T00:41:01.615Z,99.90
2019-04-01T00:43:46.529Z,99.90
2019-04-01T00:46:14.233Z,99.90
2019-04-01T00:48:40.661Z,99.90
2019-04-01T00:51:07.114Z,99.90
2019-04-01T00:53:33.577Z,99.90
2019-04-01T00:55:59.966Z,99.90
2019-04-01T00:58:26.575Z,99.90
2019-04-01T01:00:53.001Z,99.90
2019-04-01T01:03:19.391Z,99.90
2019-04-01T01:05:45.795Z,99.90
2019-04-01T01:08:12.233Z,99.90
2019-04-01T01:10:38.791Z,99.90
2019-04-01T01:13:05.391Z,99.90
2019-04-01T01:15:31.737Z,99.90
2019-04-01T01:17:58.251Z,99.90
2019-04-01T01:20:24.816Z,99.90
2019-04-01T01:22:51.170Z,99.90
2019-04-01T01:25:17.579Z,99.90
2019-04-01T01:27:44.086Z,99.90
2019-04-01T01:30:10.827Z,99.90
2019-04-01T01:32:37.103Z,99.90
2019-04-01T01:35:04.613Z,99.90
2019-04-01T01:37:31.020Z,99.90
2019-04-01T01:39:57.588Z,99.90
2019-04-01T01:42:23.890Z,99.90
2019-04-01T01:44:50.515Z,99.90
2019-04-01T01:47:16.916Z,99.90
2019-04-01T01:49:43.264Z,99.90
2019-04-01T01:52:09.563Z,99.90
2019-04-01T01:54:36.101Z,99.90
2019-04-01T01:57:02.601Z,99.90
2019-04-01T01:59:28.901Z,99.90
2019-04-01T02:01:55.309Z,99.90
2019-04-01T02:04:21.605Z,99.90
2019-04-01T02:06:48.192Z,99.90
2019-04-01T02:09:14.565Z,99.90
2019-04-01T02:11:41.072Z,99.90
2019-04-01T02:14:07.479Z,99.90
2019-04-01T02:16:33.956Z,99.90
2019-04-01T02:19:00.661Z,99.90
2019-04-01T02:21:27.062Z,99.90
2019-04-01T02:23:53.427Z,99.90
2019-04-01T02:26:19.875Z,99.90
2019-04-01T02:28:46.270Z,99.90
2019-04-01T02:31:12.801Z,99.90
2019-04-01T02:33:39.211Z,99.90
2019-04-01T02:36:05.518Z,99.90
2019-04-01T02:38:31.887Z,99.90
2019-04-01T02:40:58.498Z,99.90
2019-04-01T02:43:24.980Z,99.90
2019-04-01T02:45:51.692Z,99.90
2019-04-01T02:48:18.160Z,99.90
2019-04-01T02:50:44.602Z,99.90
2019-04-01T02:53:11.237Z,99.90
2019-04-01T02:55:37.742Z,99.90
2019-04-01T02:58:04.221Z,99.90
2019-04-01T03:00:30.803Z,99.90
2019-04-01T03:02:57.231Z,99.90
2019-04-01T03:05:23.644Z,99.90
2019-04-01T03:07:50.447Z,99.90
2019-04-01T03:10:17.065Z,99.90
2019-04-01T03:12:43.648Z,99.90
2019-04-01T03:15:09.964Z,99.90
2019-04-01T03:17:36.484Z,99.90
2019-04-01T03:20:05.581Z,99.90
2019-04-01T03:22:32.226Z,99.90
2019-04-01T03:24:58.629Z,99.90
2019-04-01T03:27:25.173Z,99.90
2019-04-01T03:29:51.774Z,99.90
2019-04-01T03:32:18.248Z,99.90
2019-04-01T03:34:44.710Z,99.90
2019-04-01T03:37:10.986Z,99.90
2019-04-01T03:39:37.485Z,99.90
2019-04-01T03:42:03.834Z,99.90
2019-04-01T03:44:30.266Z,99.90
2019-04-01T03:46:56.645Z,99.90
2019-04-01T03:49:23.164Z,99.90
2019-04-01T03:51:49.636Z,99.90
2019-04-01T03:54:16.104Z,99.90
2019-04-01T03:56:42.526Z,99.90
2019-04-01T03:59:09.007Z,99.90
2019-04-01T04:01:35.425Z,99.90
2019-04-01T04:04:02.045Z,99.90
2019-04-01T04:06:30.641Z,99.90
2019-04-01T04:09:01.566Z,99.90
2019-04-01T04:11:25.837Z,99.90
2019-04-01T04:13:52.370Z,99.90
2019-04-01T04:16:18.886Z,99.90
2019-04-01T04:18:45.699Z,99.90
2019-04-01T04:21:12.269Z,99.90
2019-04-01T04:23:38.540Z,99.90
2019-04-01T04:26:05.229Z,99.90
2019-04-01T04:28:31.905Z,99.90
2019-04-01T04:30:58.680Z,99.90
2019-04-01T04:33:25.135Z,99.90
2019-04-01T04:35:51.680Z,99.90
2019-04-01T04:38:18.036Z,99.90
2019-04-01T04:40:44.583Z,99.90
2019-04-01T04:43:11.043Z,99.90
2019-04-01T04:45:37.650Z,99.90
2019-04-01T04:48:04.241Z,99.90
2019-04-01T04:50:30.804Z,99.90
2019-04-01T04:52:57.511Z,99.90
2019-04-01T04:55:24.151Z,99.90
2019-04-01T04:57:50.798Z,99.90
2019-04-01T05:00:17.474Z,99.90
2019-04-01T05:02:44.060Z,99.90
2019-04-01T05:05:10.758Z,99.90
2019-04-01T05:07:37.220Z,99.90
2019-04-01T05:10:06.961Z,99.90
2019-04-01T05:12:33.639Z,99.90
2019-04-01T05:15:00.476Z,99.90
2019-04-01T05:17:27.050Z,99.90
2019-04-01T05:19:53.471Z,99.90
2019-04-01T05:22:20.882Z,99.90
2019-04-01T05:24:47.712Z,99.90
2019-04-01T05:27:18.474Z,99.90
2019-04-01T05:29:47.632Z,99.90
2019-04-01T05:32:16.357Z,99.90
2019-04-01T05:34:43.891Z,99.90
2019-04-01T05:37:10.194Z,99.90
2019-04-01T05:39:36.857Z,99.90
2019-04-01T05:42:03.591Z,99.90
2019-04-01T05:44:30.089Z,99.90
2019-04-01T05:46:56.698Z,99.90
2019-04-01T05:49:23.185Z,99.90
2019-04-01T05:51:49.856Z,99.90
2019-04-01T05:54:16.461Z,99.90
2019-04-01T05:56:43.041Z,99.90
2019-04-01T05:59:09.697Z,99.90
2019-04-01T06:01:38.440Z,99.90
2019-04-01T06:04:05.060Z,99.90
2019-04-01T06:06:31.935Z,99.90
2019-04-01T06:08:58.587Z,99.90
2019-04-01T06:11:25.711Z,99.90
2019-04-01T06:13:52.663Z,99.90
2019-04-01T06:16:19.453Z,99.90
2019-04-01T06:18:46.574Z,99.90
2019-04-01T06:21:13.114Z,99.90
2019-04-01T06:23:40.259Z,99.90
2019-04-01T06:26:06.767Z,99.90
2019-04-01T06:28:33.328Z,99.90
2019-04-01T06:30:59.783Z,99.90
2019-04-01T06:33:26.693Z,99.90
2019-04-01T06:35:53.206Z,99.90
2019-04-01T06:38:19.984Z,99.90
2019-04-01T06:40:47.223Z,99.90
2019-04-01T06:43:13.959Z,99.90
2019-04-01T06:45:40.533Z,99.90
2019-04-01T06:48:07.150Z,99.90
2019-04-01T06:50:33.757Z,99.90
2019-04-01T06:53:00.245Z,99.90
2019-04-01T06:55:26.804Z,99.90
2019-04-01T06:57:53.585Z,99.90
2019-04-01T07:00:20.107Z,99.90
2019-04-01T07:02:46.805Z,99.90
2019-04-01T07:05:13.430Z,99.90
2019-04-01T07:07:39.945Z,99.90
2019-04-01T07:10:06.977Z,99.90
2019-04-01T07:12:33.584Z,99.90
2019-04-01T07:15:00.371Z,99.90
2019-04-01T07:17:27.024Z,99.90
2019-04-01T07:19:53.646Z,99.90
2019-04-01T07:22:20.384Z,99.90
2019-04-01T07:24:46.990Z,99.90
2019-04-01T07:27:13.557Z,99.90
2019-04-01T07:29:40.126Z,99.90
2019-04-01T07:32:06.761Z,99.90
2019-04-01T07:34:33.280Z,99.90
2019-04-01T07:36:59.926Z,99.90
2019-04-01T07:39:26.446Z,99.90
2019-04-01T07:41:53.064Z,99.90
2019-04-01T07:44:20.154Z,99.90
2019-04-01T07:46:46.806Z,99.90
2019-04-01T07:49:13.187Z,99.90
2019-04-01T07:51:39.942Z,99.90
2019-04-01T07:54:06.529Z,99.90
2019-04-01T07:56:33.087Z,99.90
2019-04-01T07:58:59.607Z,99.90
2019-04-01T08:01:26.234Z,99.90
2019-04-01T08:03:52.820Z,99.90
2019-04-01T08:06:19.515Z,99.90
2019-04-01T08:08:46.481Z,99.90
2019-04-01T08:11:13.184Z,99.90
2019-04-01T08:13:39.746Z,99.90
2019-04-01T08:16:06.437Z,99.90
2019-04-01T08:18:34.039Z,99.90
2019-04-01T08:21:00.961Z,99.90
2019-04-01T08:23:27.567Z,99.90
2019-04-01T08:25:54.176Z,99.90
2019-04-01T08:28:23.637Z,99.90
2019-04-01T08:30:49.233Z,99.90
2019-04-01T08:33:15.737Z,99.90
2019-04-01T08:35:42.333Z,99.90
2019-04-01T08:38:08.961Z,99.90
2019-04-01T08:40:35.662Z,99.90
2019-04-01T08:43:02.387Z,99.90
2019-04-01T08:45:28.985Z,99.90
2019-04-01T08:47:55.800Z,99.90
2019-04-01T08:50:22.616Z,99.90
2019-04-01T08:52:49.269Z,99.90
2019-04-01T08:55:15.978Z,99.90
2019-04-01T08:57:42.542Z,99.90
2019-04-01T09:00:09.545Z,99.90
2019-04-01T09:02:36.249Z,99.90
2019-04-01T09:05:03.891Z,99.90
2019-04-01T09:07:30.339Z,99.90
2019-04-01T09:09:57.349Z,99.90
2019-04-01T09:12:25.402Z,99.90
2019-04-01T09:14:51.837Z,99.90
2019-04-01T09:17:18.816Z,99.90
2019-04-01T09:19:45.352Z,99.90
2019-04-01T09:22:11.857Z,99.90
2019-04-01T09:24:38.427Z,99.90
2019-04-01T09:27:04.901Z,99.90
2019-04-01T09:29:31.457Z,99.90
2019-04-01T09:31:57.946Z,99.90
2019-04-01T09:34:24.520Z,99.90
2019-04-01T09:36:50.823Z,99.90
2019-04-01T09:39:17.354Z,99.90
2019-04-01T09:41:43.965Z,99.90
2019-04-01T09:44:10.639Z,99.90
2019-04-01T09:46:38.168Z,99.90
2019-04-01T09:49:04.619Z,99.90
2019-04-01T09:51:31.025Z,99.90
2019-04-01T09:53:57.427Z,99.90
2019-04-01T09:56:24.061Z,99.90
2019-04-01T09:58:50.597Z,99.90
2019-04-01T10:01:17.155Z,99.90
2019-04-01T10:03:43.778Z,99.90
2019-04-01T10:06:10.680Z,99.90
2019-04-01T10:08:44.706Z,99.90
2019-04-01T10:11:05.697Z,99.90
2019-04-01T10:13:32.310Z,99.90
2019-04-01T10:15:58.836Z,99.90
2019-04-01T10:18:25.391Z,99.90
2019-04-01T10:20:52.129Z,99.90
2019-04-01T10:23:18.842Z,99.90
2019-04-01T10:25:45.397Z,99.90
2019-04-01T10:28:11.927Z,99.90
2019-04-01T10:30:38.512Z,99.90
2019-04-01T10:33:05.070Z,99.90
2019-04-01T10:35:31.847Z,99.90
2019-04-01T10:37:58.381Z,99.90
2019-04-01T10:40:24.930Z,99.90
2019-04-01T10:42:51.440Z,99.90
2019-04-01T10:45:18.256Z,99.90
2019-04-01T10:47:44.831Z,99.90
2019-04-01T10:50:12.168Z,99.90
2019-04-01T10:52:38.891Z,99.90
2019-04-01T10:55:06.288Z,99.90
2019-04-01T10:57:33.097Z,99.90
2019-04-01T10:59:59.575Z,99.90
2019-04-01T11:02:26.212Z,99.90
2019-04-01T11:04:52.812Z,99.90
2019-04-01T11:07:19.454Z,99.90
2019-04-01T11:09:46.115Z,99.90
2019-04-01T11:12:12.657Z,99.90
2019-04-01T11:14:39.267Z,99.90
2019-04-01T11:17:05.937Z,99.90
2019-04-01T11:19:32.247Z,99.90
2019-04-01T11:21:58.804Z,99.90
2019-04-01T11:24:25.227Z,99.90
2019-04-01T11:26:51.764Z,99.90
2019-04-01T11:29:18.268Z,99.80
2019-04-01T11:31:44.766Z,99.00
2019-04-01T11:34:11.393Z,99.90
2019-04-01T11:36:38.059Z,99.90
2019-04-01T11:39:05.747Z,99.10
2019-04-01T11:41:32.274Z,98.60
2019-04-01T11:43:59.140Z,98.50
2019-04-01T11:46:25.583Z,98.50
2019-04-01T11:48:52.234Z,97.90
2019-04-01T11:51:32.021Z,97.80
2019-04-01T11:53:47.447Z,97.40
2019-04-01T11:56:14.032Z,96.80
2019-04-01T11:58:40.671Z,96.60
2019-04-01T12:01:07.235Z,96.50
2019-04-01T12:03:33.896Z,95.90
2019-04-01T12:06:00.371Z,95.90
2019-04-01T12:08:27.001Z,94.80
2019-04-01T12:10:53.562Z,94.50
2019-04-01T12:13:20.204Z,95.30
2019-04-01T12:15:46.880Z,95.10
2019-04-01T12:18:13.276Z,95.90
2019-04-01T12:20:39.922Z,94.30
2019-04-01T12:23:06.541Z,93.10
2019-04-01T12:25:33.187Z,94.10
2019-04-01T12:27:59.712Z,93.40
2019-04-01T12:30:26.240Z,94.10
2019-04-01T12:32:52.627Z,92.80
2019-04-01T12:35:19.639Z,92.40
2019-04-01T12:37:46.274Z,92.30
2019-04-01T12:40:13.381Z,91.80
2019-04-01T12:42:39.869Z,91.60
2019-04-01T12:45:07.031Z,90.60
2019-04-01T12:47:34.050Z,90.40
2019-04-01T12:50:00.620Z,89.40
2019-04-01T12:52:27.160Z,89.60
2019-04-01T12:54:53.697Z,89.80
2019-04-01T12:57:20.953Z,89.20
2019-04-01T12:59:47.669Z,87.60
2019-04-01T13:02:17.851Z,88.10
2019-04-01T13:04:42.647Z,87.10
2019-04-01T13:07:09.104Z,86.70
2019-04-01T13:09:35.617Z,86.50
2019-04-01T13:12:05.420Z,87.00
2019-04-01T13:14:32.065Z,84.80
2019-04-01T13:16:58.553Z,84.50
2019-04-01T13:19:25.179Z,83.10
2019-04-01T13:21:51.526Z,84.60
2019-04-01T13:24:18.055Z,83.70
2019-04-01T13:26:44.617Z,82.70
2019-04-01T13:29:11.121Z,83.50
2019-04-01T13:31:37.763Z,81.70
2019-04-01T13:34:04.412Z,82.10
2019-04-01T13:36:31.095Z,80.10
2019-04-01T13:38:57.704Z,81.00
2019-04-01T13:41:25.232Z,80.30
2019-04-01T13:43:52.086Z,78.50
2019-04-01T13:46:19.238Z,77.80
2019-04-01T13:48:57.538Z,78.20
2019-04-01T13:51:14.603Z,78.10
2019-04-01T13:53:41.062Z,77.60
2019-04-01T13:56:10.210Z,77.10
2019-04-01T13:58:35.953Z,77.00
2019-04-01T14:01:02.572Z,76.60
2019-04-01T14:03:29.400Z,76.30
2019-04-01T14:05:56.161Z,74.90
2019-04-01T14:08:23.032Z,76.10
2019-04-01T14:10:49.671Z,74.80
2019-04-01T14:13:16.174Z,74.10
2019-04-01T14:15:42.745Z,72.90
2019-04-01T14:18:09.387Z,72.80
2019-04-01T14:20:36.045Z,72.30
2019-04-01T14:23:02.581Z,71.30
2019-04-01T14:25:29.240Z,71.00
2019-04-01T14:27:55.725Z,71.20
2019-04-01T14:30:22.305Z,70.50
2019-04-01T14:32:48.701Z,70.00
2019-04-01T14:35:15.462Z,69.60
2019-04-01T14:37:41.858Z,69.00
2019-04-01T14:40:09.141Z,69.20
2019-04-01T14:42:37.306Z,68.80
2019-04-01T14:45:05.985Z,68.40
2019-04-01T14:47:32.945Z,68.60
2019-04-01T14:49:59.766Z,67.40
2019-04-01T14:52:32.838Z,66.30
2019-04-01T14:54:55.138Z,66.00
2019-04-01T14:57:21.797Z,64.50
2019-04-01T14:59:48.314Z,64.30
2019-04-01T15:02:15.092Z,64.70
2019-04-01T15:04:41.726Z,64.00
2019-04-01T15:07:08.163Z,62.60
2019-04-01T15:09:34.782Z,62.70
2019-04-01T15:12:01.456Z,62.20
2019-04-01T15:14:27.749Z,61.40
2019-04-01T15:16:54.196Z,61.30
2019-04-01T15:19:20.608Z,60.70
2019-04-01T15:21:47.565Z,60.30
2019-04-01T15:24:13.954Z,60.00
2019-04-01T15:26:40.523Z,59.70
2019-04-01T15:29:07.032Z,59.40
2019-04-01T15:31:33.591Z,58.50
2019-04-01T15:34:00.071Z,58.00
2019-04-01T15:36:27.039Z,57.50
2019-04-01T15:38:53.901Z,57.80
2019-04-01T15:41:20.353Z,57.70
2019-04-01T15:43:46.888Z,57.00
2019-04-01T15:46:13.378Z,56.80
2019-04-01T15:48:40.156Z,57.00
2019-04-01T15:51:07.776Z,56.40
2019-04-01T15:53:34.846Z,56.40
2019-04-01T15:56:01.808Z,56.10
2019-04-01T15:58:28.363Z,55.40
2019-04-01T16:00:54.838Z,55.60
2019-04-01T16:03:21.500Z,55.30
2019-04-01T16:05:48.039Z,54.60
2019-04-01T16:08:14.672Z,54.50
2019-04-01T16:10:41.262Z,54.40
2019-04-01T16:13:08.033Z,54.60
2019-04-01T16:15:34.817Z,54.00
2019-04-01T16:18:02.447Z,53.80
2019-04-01T16:20:29.368Z,53.20
2019-04-01T16:22:56.062Z,52.90
2019-04-01T16:25:22.657Z,53.30
2019-04-01T16:27:49.070Z,53.50
2019-04-01T16:30:15.682Z,53.00
2019-04-01T16:32:42.051Z,53.60
2019-04-01T16:35:09.039Z,53.00
2019-04-01T16:37:35.478Z,53.50
2019-04-01T16:40:05.856Z,53.40
2019-04-01T16:42:31.662Z,53.70
2019-04-01T16:44:58.224Z,54.50
2019-04-01T16:47:24.850Z,55.80
2019-04-01T16:49:51.277Z,56.80
2019-04-01T16:52:17.990Z,57.70
2019-04-01T16:54:55.122Z,58.50
2019-04-01T16:57:21.752Z,58.80
2019-04-01T16:59:48.285Z,59.30
2019-04-01T17:02:18.361Z,60.00
2019-04-01T17:04:46.142Z,61.10
2019-04-01T17:07:12.164Z,60.60
2019-04-01T17:09:39.092Z,60.70
2019-04-01T17:12:05.902Z,61.70
2019-04-01T17:14:32.787Z,61.40
2019-04-01T17:16:59.447Z,61.90
2019-04-01T17:19:27.819Z,62.10
2019-04-01T17:21:54.474Z,62.10
2019-04-01T17:24:21.105Z,62.50
2019-04-01T17:27:02.167Z,62.60
2019-04-01T17:29:31.678Z,62.80
2019-04-01T17:31:57.397Z,63.00
2019-04-01T17:34:23.904Z,63.50
2019-04-01T17:36:50.647Z,63.20
2019-04-01T17:39:17.179Z,63.70
2019-04-01T17:41:46.357Z,63.70
2019-04-01T17:44:14.019Z,63.90
2019-04-01T17:46:40.907Z,64.00
2019-04-01T17:49:07.561Z,64.00
2019-04-01T17:51:34.209Z,64.50
2019-04-01T17:54:01.237Z,64.60
2019-04-01T17:56:28.006Z,65.00
2019-04-01T17:58:54.722Z,65.10
2019-04-01T18:01:21.521Z,64.90
2019-04-01T18:03:48.108Z,65.00
2019-04-01T18:06:14.858Z,65.40
2019-04-01T18:08:41.449Z,65.40
2019-04-01T18:11:08.182Z,65.40
2019-04-01T18:13:34.631Z,65.70
2019-04-01T18:16:01.099Z,65.40
2019-04-01T18:18:28.031Z,65.90
2019-04-01T18:20:54.822Z,66.10
2019-04-01T18:23:22.237Z,66.50
2019-04-01T18:25:49.868Z,66.60
2019-04-01T18:28:16.693Z,66.70
2019-04-01T18:30:43.497Z,66.40
2019-04-01T18:33:10.232Z,66.90
2019-04-01T18:35:36.626Z,66.70
2019-04-01T18:38:03.683Z,67.40
2019-04-01T18:40:33.037Z,67.00
2019-04-01T18:42:59.991Z,67.70
2019-04-01T18:45:26.826Z,68.00
2019-04-01T18:47:53.724Z,68.30
2019-04-01T18:50:20.426Z,68.30
2019-04-01T18:52:47.354Z,68.40
2019-04-01T18:55:14.364Z,69.00
2019-04-01T18:57:41.146Z,68.60
2019-04-01T19:00:08.986Z,69.10
2019-04-01T19:02:35.945Z,69.50
2019-04-01T19:05:03.247Z,69.70
2019-04-01T19:07:30.245Z,69.70
2019-04-01T19:10:05.951Z,70.00
2019-04-01T19:12:25.801Z,70.10
2019-04-01T19:14:52.674Z,70.40
2019-04-01T19:17:19.422Z,70.70
2019-04-01T19:19:48.651Z,71.00
2019-04-01T19:22:14.938Z,71.20
2019-04-01T19:24:41.723Z,71.20
2019-04-01T19:27:08.275Z,71.40
2019-04-01T19:29:35.088Z,72.10
2019-04-01T19:32:01.994Z,72.00
2019-04-01T19:34:28.667Z,72.20
2019-04-01T19:36:55.338Z,72.30
2019-04-01T19:39:23.103Z,72.80
2019-04-01T19:41:49.931Z,73.10
2019-04-01T19:44:16.570Z,73.40
2019-04-01T19:46:43.328Z,74.30
2019-04-01T19:49:10.047Z,74.80
2019-04-01T19:51:36.963Z,75.00
2019-04-01T19:54:03.796Z,75.10
2019-04-01T19:56:31.080Z,75.70
2019-04-01T19:58:58.008Z,76.00
2019-04-01T20:01:25.006Z,76.80
2019-04-01T20:03:51.945Z,77.40
2019-04-01T20:06:18.907Z,78.00
2019-04-01T20:08:47.008Z,78.50
2019-04-01T20:11:15.545Z,79.10
2019-04-01T20:13:42.828Z,79.70
2019-04-01T20:16:10.353Z,80.50
2019-04-01T20:18:37.270Z,80.60
2019-04-01T20:21:03.884Z,80.90
2019-04-01T20:23:30.769Z,81.20
2019-04-01T20:25:57.611Z,81.90
2019-04-01T20:28:24.235Z,82.50
2019-04-01T20:30:51.009Z,82.60
2019-04-01T20:33:18.593Z,84.00
2019-04-01T20:35:45.881Z,84.40
2019-04-01T20:38:12.646Z,85.20
2019-04-01T20:40:39.184Z,85.60
2019-04-01T20:43:05.790Z,86.00
2019-04-01T20:45:32.462Z,86.60
2019-04-01T20:47:59.327Z,86.70
2019-04-01T20:50:25.995Z,88.60
2019-04-01T20:52:52.440Z,88.20
2019-04-01T20:55:19.031Z,88.80
2019-04-01T20:57:46.198Z,89.40
2019-04-01T21:00:13.738Z,89.50
2019-04-01T21:02:40.477Z,90.10
2019-04-01T21:05:07.842Z,90.10
2019-04-01T21:07:34.456Z,90.70
2019-04-01T21:10:01.095Z,91.10
2019-04-01T21:12:27.629Z,91.40
2019-04-01T21:14:56.078Z,91.70
2019-04-01T21:17:23.129Z,91.80
2019-04-01T21:19:50.439Z,92.00
2019-04-01T21:22:16.827Z,92.40
2019-04-01T21:24:43.262Z,92.40
2019-04-01T21:27:09.769Z,92.50
2019-04-01T21:29:36.324Z,92.80
2019-04-01T21:32:03.092Z,92.90
2019-04-01T21:34:29.797Z,93.50
2019-04-01T21:36:56.356Z,93.70
2019-04-01T21:39:22.888Z,94.00
2019-04-01T21:41:49.398Z,94.20
2019-04-01T21:44:15.827Z,94.50
2019-04-01T21:46:43.180Z,95.60
2019-04-01T21:49:10.321Z,95.20
2019-04-01T21:51:36.988Z,95.30
2019-04-01T21:54:03.621Z,95.70
2019-04-01T21:56:30.101Z,96.10
2019-04-01T21:58:56.432Z,97.10
2019-04-01T22:01:23.178Z,96.80
2019-04-01T22:03:49.718Z,97.40
2019-04-01T22:06:16.234Z,98.00
2019-04-01T22:08:42.761Z,97.80
2019-04-01T22:11:09.194Z,98.00
2019-04-01T22:13:35.743Z,98.20
2019-04-01T22:16:02.384Z,98.80
2019-04-01T22:18:28.663Z,98.80
2019-04-01T22:20:55.279Z,99.20
2019-04-01T22:23:21.708Z,99.40
2019-04-01T22:25:48.166Z,99.90
2019-04-01T22:28:14.563Z,99.90
2019-04-01T22:30:41.189Z,99.90
2019-04-01T22:33:07.799Z,99.90
2019-04-01T22:35:38.865Z,99.90
2019-04-01T22:38:03.522Z,99.90
2019-04-01T22:40:30.590Z,99.90
2019-04-01T22:42:57.394Z,99.90
2019-04-01T22:45:23.889Z,99.90
2019-04-01T22:47:50.370Z,99.90
2019-04-01T22:50:16.871Z,99.90
2019-04-01T22:52:43.277Z,99.90
2019-04-01T22:55:10.062Z,99.90
2019-04-01T22:57:36.582Z,99.90
2019-04-01T23:00:04.558Z,99.90
2019-04-01T23:02:30.897Z,99.90
2019-04-01T23:04:57.401Z,99.90
2019-04-01T23:07:23.716Z,99.90
2019-04-01T23:09:50.040Z,99.90
2019-04-01T23:12:16.555Z,99.90
2019-04-01T23:14:43.941Z,99.90
2019-04-01T23:17:10.531Z,99.90
2019-04-01T23:19:36.932Z,99.90
2019-04-01T23:22:03.720Z,99.90
2019-04-01T23:24:30.224Z,99.90
2019-04-01T23:26:56.768Z,99.90
2019-04-01T23:29:23.178Z,99.90
2019-04-01T23:31:49.602Z,99.90
2019-04-01T23:34:15.933Z,99.90
2019-04-01T23:36:42.412Z,99.90
2019-04-01T23:39:09.002Z,99.90
2019-04-01T23:41:35.378Z,99.90
2019-04-01T23:44:02.046Z,99.90
2019-04-01T23:46:28.576Z,99.90
2019-04-01T23:48:55.027Z,99.90
2019-04-01T23:51:21.415Z,99.90
2019-04-01T23:53:47.919Z,99.90
2019-04-01T23:56:14.393Z,99.90
2019-04-01T23:58:40.802Z,99.90
